sensor_id;sensor_type;location;lat;lon;timestamp;temperature;humidity
76211;DHT22;65003;49.518;11.280;2023-02-28T00:00:07;-1.20;77.20
76211;DHT22;65003;49.518;11.280;2023-02-28T00:02:37;-1.10;76.90
76211;DHT22;65003;49.518;11.280;2023-02-28T00:05:04;-1.10;76.80
76211;DHT22;65003;49.518;11.280;2023-02-28T00:07:31;-1.10;77.20
76211;DHT22;65003;49.518;11.280;2023-02-28T00:09:58;-1.10;77.30
76211;DHT22;65003;49.518;11.280;2023-02-28T00:12:24;-1.20;77.60
76211;DHT22;65003;49.518;11.280;2023-02-28T00:14:51;-1.20;78.00
76211;DHT22;65003;49.518;11.280;2023-02-28T00:17:17;-1.20;78.10
76211;DHT22;65003;49.518;11.280;2023-02-28T00:19:44;-1.20;78.00
76211;DHT22;65003;49.518;11.280;2023-02-28T00:22:11;-1.20;77.90
76211;DHT22;65003;49.518;11.280;2023-02-28T00:24:37;-1.20;78.00
76211;DHT22;65003;49.518;11.280;2023-02-28T00:27:04;-1.20;78.10
76211;DHT22;65003;49.518;11.280;2023-02-28T00:29:30;-1.10;78.10
76211;DHT22;65003;49.518;11.280;2023-02-28T00:31:57;-1.10;78.30
76211;DHT22;65003;49.518;11.280;2023-02-28T00:34:24;-1.10;78.00
76211;DHT22;65003;49.518;11.280;2023-02-28T00:36:50;-1.10;78.10
76211;DHT22;65003;49.518;11.280;2023-02-28T00:39:18;-1.20;78.30
76211;DHT22;65003;49.518;11.280;2023-02-28T00:41:45;-1.10;78.40
76211;DHT22;65003;49.518;11.280;2023-02-28T00:44:12;-1.10;78.40
76211;DHT22;65003;49.518;11.280;2023-02-28T00:46:38;-1.20;78.60
76211;DHT22;65003;49.518;11.280;2023-02-28T00:49:05;-1.20;78.90
76211;DHT22;65003;49.518;11.280;2023-02-28T00:51:31;-1.30;78.90
76211;DHT22;65003;49.518;11.280;2023-02-28T00:53:58;-1.20;78.90
76211;DHT22;65003;49.518;11.280;2023-02-28T00:56:24;-1.20;78.80
76211;DHT22;65003;49.518;11.280;2023-02-28T00:58:51;-1.10;78.50
76211;DHT22;65003;49.518;11.280;2023-02-28T01:01:19;-1.10;78.30
76211;DHT22;65003;49.518;11.280;2023-02-28T01:03:46;-1.10;78.50
76211;DHT22;65003;49.518;11.280;2023-02-28T01:06:12;-1.20;78.60
76211;DHT22;65003;49.518;11.280;2023-02-28T01:08:39;-1.20;78.70
76211;DHT22;65003;49.518;11.280;2023-02-28T01:11:07;-1.20;79.50
76211;DHT22;65003;49.518;11.280;2023-02-28T01:13:33;-1.20;79.10
76211;DHT22;65003;49.518;11.280;2023-02-28T01:16:00;-1.20;79.10
76211;DHT22;65003;49.518;11.280;2023-02-28T01:18:26;-1.10;78.90
76211;DHT22;65003;49.518;11.280;2023-02-28T01:20:53;-1.10;78.50
76211;DHT22;65003;49.518;11.280;2023-02-28T01:23:20;-1.00;78.30
76211;DHT22;65003;49.518;11.280;2023-02-28T01:25:47;-1.10;78.40
76211;DHT22;65003;49.518;11.280;2023-02-28T01:28:14;-1.10;78.30
76211;DHT22;65003;49.518;11.280;2023-02-28T01:30:40;-1.20;78.60
76211;DHT22;65003;49.518;11.280;2023-02-28T01:33:07;-1.20;78.70
76211;DHT22;65003;49.518;11.280;2023-02-28T01:35:34;-1.10;79.00
76211;DHT22;65003;49.518;11.280;2023-02-28T01:38:00;-1.10;78.70
76211;DHT22;65003;49.518;11.280;2023-02-28T01:40:26;-0.90;78.20
76211;DHT22;65003;49.518;11.280;2023-02-28T01:42:53;-1.00;78.30
76211;DHT22;65003;49.518;11.280;2023-02-28T01:45:26;-1.00;78.40
76211;DHT22;65003;49.518;11.280;2023-02-28T01:47:53;-1.20;78.70
76211;DHT22;65003;49.518;11.280;2023-02-28T01:50:19;-1.30;79.50
76211;DHT22;65003;49.518;11.280;2023-02-28T01:52:45;-1.30;79.90
76211;DHT22;65003;49.518;11.280;2023-02-28T01:55:12;-1.40;80.30
76211;DHT22;65003;49.518;11.280;2023-02-28T01:57:40;-1.40;80.50
76211;DHT22;65003;49.518;11.280;2023-02-28T02:00:08;-1.40;80.40
76211;DHT22;65003;49.518;11.280;2023-02-28T02:02:34;-1.40;80.50
76211;DHT22;65003;49.518;11.280;2023-02-28T02:05:04;-1.40;80.80
76211;DHT22;65003;49.518;11.280;2023-02-28T02:07:31;-1.50;80.90
76211;DHT22;65003;49.518;11.280;2023-02-28T02:10:02;-1.40;80.70
76211;DHT22;65003;49.518;11.280;2023-02-28T02:12:34;-1.40;80.70
76211;DHT22;65003;49.518;11.280;2023-02-28T02:15:20;-1.50;81.20
76211;DHT22;65003;49.518;11.280;2023-02-28T02:17:49;-1.50;81.10
76211;DHT22;65003;49.518;11.280;2023-02-28T02:24:32;-1.30;80.60
76211;DHT22;65003;49.518;11.280;2023-02-28T02:26:12;-1.40;81.30
76211;DHT22;65003;49.518;11.280;2023-02-28T02:28:41;-1.40;80.70
76211;DHT22;65003;49.518;11.280;2023-02-28T02:31:44;-1.40;80.90
76211;DHT22;65003;49.518;11.280;2023-02-28T02:34:19;-1.40;81.00
76211;DHT22;65003;49.518;11.280;2023-02-28T02:36:42;-1.50;81.30
76211;DHT22;65003;49.518;11.280;2023-02-28T02:39:12;-1.50;81.40
76211;DHT22;65003;49.518;11.280;2023-02-28T02:41:39;-1.50;81.30
76211;DHT22;65003;49.518;11.280;2023-02-28T02:44:16;-1.60;81.80
76211;DHT22;65003;49.518;11.280;2023-02-28T02:46:44;-1.60;81.80
76211;DHT22;65003;49.518;11.280;2023-02-28T02:49:13;-1.60;81.90
76211;DHT22;65003;49.518;11.280;2023-02-28T02:51:36;-1.50;81.60
76211;DHT22;65003;49.518;11.280;2023-02-28T02:54:05;-1.50;82.30
76211;DHT22;65003;49.518;11.280;2023-02-28T02:56:31;-1.50;81.60
76211;DHT22;65003;49.518;11.280;2023-02-28T02:58:59;-1.50;81.50
76211;DHT22;65003;49.518;11.280;2023-02-28T03:01:24;-1.60;81.90
76211;DHT22;65003;49.518;11.280;2023-02-28T03:03:58;-1.60;82.00
76211;DHT22;65003;49.518;11.280;2023-02-28T03:06:24;-1.60;82.00
76211;DHT22;65003;49.518;11.280;2023-02-28T03:08:51;-1.60;82.20
76211;DHT22;65003;49.518;11.280;2023-02-28T03:11:17;-1.60;82.40
76211;DHT22;65003;49.518;11.280;2023-02-28T03:14:22;-1.50;82.00
76211;DHT22;65003;49.518;11.280;2023-02-28T03:16:39;-1.50;81.90
76211;DHT22;65003;49.518;11.280;2023-02-28T03:21:47;-1.50;82.00
76211;DHT22;65003;49.518;11.280;2023-02-28T03:24:15;-1.60;81.90
76211;DHT22;65003;49.518;11.280;2023-02-28T03:26:42;-1.50;82.10
76211;DHT22;65003;49.518;11.280;2023-02-28T03:29:23;-1.50;81.90
76211;DHT22;65003;49.518;11.280;2023-02-28T03:31:48;-1.50;82.00
76211;DHT22;65003;49.518;11.280;2023-02-28T03:34:29;-1.60;82.00
76211;DHT22;65003;49.518;11.280;2023-02-28T03:36:55;-1.70;82.40
76211;DHT22;65003;49.518;11.280;2023-02-28T03:39:24;-1.70;82.70
76211;DHT22;65003;49.518;11.280;2023-02-28T03:41:52;-1.70;82.90
76211;DHT22;65003;49.518;11.280;2023-02-28T03:44:18;-1.80;82.90
76211;DHT22;65003;49.518;11.280;2023-02-28T03:46:47;-1.80;83.00
76211;DHT22;65003;49.518;11.280;2023-02-28T03:49:14;-1.70;82.90
76211;DHT22;65003;49.518;11.280;2023-02-28T03:51:38;-1.70;82.60
76211;DHT22;65003;49.518;11.280;2023-02-28T03:54:07;-1.70;82.60
76211;DHT22;65003;49.518;11.280;2023-02-28T03:56:37;-1.70;82.60
76211;DHT22;65003;49.518;11.280;2023-02-28T03:59:13;-1.70;82.50
76211;DHT22;65003;49.518;11.280;2023-02-28T04:01:40;-1.60;82.20
76211;DHT22;65003;49.518;11.280;2023-02-28T04:04:05;-1.60;82.10
76211;DHT22;65003;49.518;11.280;2023-02-28T04:06:32;-1.60;82.00
76211;DHT22;65003;49.518;11.280;2023-02-28T04:08:59;-1.60;82.00
76211;DHT22;65003;49.518;11.280;2023-02-28T04:11:34;-1.50;82.00
76211;DHT22;65003;49.518;11.280;2023-02-28T04:14:00;-1.50;81.70
76211;DHT22;65003;49.518;11.280;2023-02-28T04:16:26;-1.50;81.70
76211;DHT22;65003;49.518;11.280;2023-02-28T04:18:53;-1.40;81.90
76211;DHT22;65003;49.518;11.280;2023-02-28T04:21:20;-1.40;81.40
76211;DHT22;65003;49.518;11.280;2023-02-28T04:23:46;-1.30;81.30
76211;DHT22;65003;49.518;11.280;2023-02-28T04:26:13;-1.50;81.50
76211;DHT22;65003;49.518;11.280;2023-02-28T04:28:39;-1.50;81.80
76211;DHT22;65003;49.518;11.280;2023-02-28T04:31:06;-1.50;81.90
76211;DHT22;65003;49.518;11.280;2023-02-28T04:33:33;-1.50;82.60
76211;DHT22;65003;49.518;11.280;2023-02-28T04:36:03;-1.40;81.70
76211;DHT22;65003;49.518;11.280;2023-02-28T04:38:32;-1.30;81.10
76211;DHT22;65003;49.518;11.280;2023-02-28T04:40:57;-1.30;81.30
76211;DHT22;65003;49.518;11.280;2023-02-28T04:43:23;-1.40;81.40
76211;DHT22;65003;49.518;11.280;2023-02-28T04:45:50;-1.40;81.50
76211;DHT22;65003;49.518;11.280;2023-02-28T04:48:16;-1.50;82.00
76211;DHT22;65003;49.518;11.280;2023-02-28T04:50:43;-1.50;82.00
76211;DHT22;65003;49.518;11.280;2023-02-28T04:53:09;-1.40;81.90
76211;DHT22;65003;49.518;11.280;2023-02-28T04:55:38;-1.30;81.00
76211;DHT22;65003;49.518;11.280;2023-02-28T04:58:04;-1.40;81.30
76211;DHT22;65003;49.518;11.280;2023-02-28T05:00:32;-1.40;81.60
76211;DHT22;65003;49.518;11.280;2023-02-28T05:02:58;-1.40;81.60
76211;DHT22;65003;49.518;11.280;2023-02-28T05:05:25;-1.40;81.70
76211;DHT22;65003;49.518;11.280;2023-02-28T05:07:52;-1.40;81.60
76211;DHT22;65003;49.518;11.280;2023-02-28T05:10:18;-1.50;81.80
76211;DHT22;65003;49.518;11.280;2023-02-28T05:12:45;-1.50;82.20
76211;DHT22;65003;49.518;11.280;2023-02-28T05:15:12;-1.60;82.60
76211;DHT22;65003;49.518;11.280;2023-02-28T05:17:39;-1.60;82.50
76211;DHT22;65003;49.518;11.280;2023-02-28T05:20:06;-1.70;82.50
76211;DHT22;65003;49.518;11.280;2023-02-28T05:22:34;-1.70;82.50
76211;DHT22;65003;49.518;11.280;2023-02-28T05:25:00;-1.60;82.60
76211;DHT22;65003;49.518;11.280;2023-02-28T05:27:27;-1.50;82.10
76211;DHT22;65003;49.518;11.280;2023-02-28T05:29:54;-1.40;81.40
76211;DHT22;65003;49.518;11.280;2023-02-28T05:32:20;-1.30;80.90
76211;DHT22;65003;49.518;11.280;2023-02-28T05:34:47;-1.20;80.40
76211;DHT22;65003;49.518;11.280;2023-02-28T05:37:14;-1.20;80.40
76211;DHT22;65003;49.518;11.280;2023-02-28T05:39:40;-1.20;80.60
76211;DHT22;65003;49.518;11.280;2023-02-28T05:42:07;-1.20;80.40
76211;DHT22;65003;49.518;11.280;2023-02-28T05:44:34;-1.20;80.40
76211;DHT22;65003;49.518;11.280;2023-02-28T05:47:02;-1.20;80.20
76211;DHT22;65003;49.518;11.280;2023-02-28T05:49:29;-1.40;80.80
76211;DHT22;65003;49.518;11.280;2023-02-28T05:51:55;-1.50;81.90
76211;DHT22;65003;49.518;11.280;2023-02-28T05:54:22;-1.50;83.90
76211;DHT22;65003;49.518;11.280;2023-02-28T05:56:49;-1.50;84.60
76211;DHT22;65003;49.518;11.280;2023-02-28T05:59:15;-1.50;83.50
76211;DHT22;65003;49.518;11.280;2023-02-28T06:01:43;-1.40;83.20
76211;DHT22;65003;49.518;11.280;2023-02-28T06:04:09;-1.40;83.20
76211;DHT22;65003;49.518;11.280;2023-02-28T06:06:35;-1.40;82.90
76211;DHT22;65003;49.518;11.280;2023-02-28T06:09:03;-1.40;82.70
76211;DHT22;65003;49.518;11.280;2023-02-28T06:11:29;-1.30;82.10
76211;DHT22;65003;49.518;11.280;2023-02-28T06:13:57;-1.30;82.00
76211;DHT22;65003;49.518;11.280;2023-02-28T06:16:23;-1.20;81.70
76211;DHT22;65003;49.518;11.280;2023-02-28T06:18:50;-1.20;81.30
76211;DHT22;65003;49.518;11.280;2023-02-28T06:21:18;-1.10;81.10
76211;DHT22;65003;49.518;11.280;2023-02-28T06:23:44;-1.00;81.30
76211;DHT22;65003;49.518;11.280;2023-02-28T06:26:11;-0.90;80.80
76211;DHT22;65003;49.518;11.280;2023-02-28T06:28:37;-0.90;80.20
76211;DHT22;65003;49.518;11.280;2023-02-28T06:31:09;-0.90;80.10
76211;DHT22;65003;49.518;11.280;2023-02-28T06:33:36;-0.90;80.10
76211;DHT22;65003;49.518;11.280;2023-02-28T06:36:02;-0.80;79.80
76211;DHT22;65003;49.518;11.280;2023-02-28T06:38:29;-0.60;79.50
76211;DHT22;65003;49.518;11.280;2023-02-28T06:40:57;-0.60;78.70
76211;DHT22;65003;49.518;11.280;2023-02-28T06:43:23;-0.60;78.70
76211;DHT22;65003;49.518;11.280;2023-02-28T06:45:49;-0.60;78.80
76211;DHT22;65003;49.518;11.280;2023-02-28T06:48:16;-0.50;78.60
76211;DHT22;65003;49.518;11.280;2023-02-28T06:50:42;-0.70;78.50
76211;DHT22;65003;49.518;11.280;2023-02-28T06:53:09;-0.50;78.80
76211;DHT22;65003;49.518;11.280;2023-02-28T06:55:37;-0.40;78.10
76211;DHT22;65003;49.518;11.280;2023-02-28T06:58:02;-0.40;77.90
76211;DHT22;65003;49.518;11.280;2023-02-28T07:00:29;-0.30;77.70
76211;DHT22;65003;49.518;11.280;2023-02-28T07:02:55;-0.30;77.60
76211;DHT22;65003;49.518;11.280;2023-02-28T07:05:22;-0.30;77.90
76211;DHT22;65003;49.518;11.280;2023-02-28T07:07:48;-0.20;77.50
76211;DHT22;65003;49.518;11.280;2023-02-28T07:10:16;-0.10;77.30
76211;DHT22;65003;49.518;11.280;2023-02-28T07:12:43;-0.10;76.90
76211;DHT22;65003;49.518;11.280;2023-02-28T07:15:09;-0.10;76.90
76211;DHT22;65003;49.518;11.280;2023-02-28T07:17:37;-0.10;77.30
76211;DHT22;65003;49.518;11.280;2023-02-28T07:20:04;-0.10;77.60
76211;DHT22;65003;49.518;11.280;2023-02-28T07:22:30;-0.10;77.60
76211;DHT22;65003;49.518;11.280;2023-02-28T07:24:57;0.00;77.60
76211;DHT22;65003;49.518;11.280;2023-02-28T07:27:23;0.10;77.00
76211;DHT22;65003;49.518;11.280;2023-02-28T07:29:50;0.10;76.70
76211;DHT22;65003;49.518;11.280;2023-02-28T07:32:17;0.10;76.50
76211;DHT22;65003;49.518;11.280;2023-02-28T07:34:43;0.20;76.60
76211;DHT22;65003;49.518;11.280;2023-02-28T07:37:10;0.40;76.00
76211;DHT22;65003;49.518;11.280;2023-02-28T07:39:36;0.70;74.60
76211;DHT22;65003;49.518;11.280;2023-02-28T07:42:04;1.00;74.10
76211;DHT22;65003;49.518;11.280;2023-02-28T07:44:30;1.40;72.00
76211;DHT22;65003;49.518;11.280;2023-02-28T07:46:57;1.70;71.00
76211;DHT22;65003;49.518;11.280;2023-02-28T07:49:24;2.20;69.10
76211;DHT22;65003;49.518;11.280;2023-02-28T07:51:51;2.70;67.10
76211;DHT22;65003;49.518;11.280;2023-02-28T07:54:17;3.00;65.80
76211;DHT22;65003;49.518;11.280;2023-02-28T07:56:44;3.30;64.20
76211;DHT22;65003;49.518;11.280;2023-02-28T07:59:10;3.60;63.10
76211;DHT22;65003;49.518;11.280;2023-02-28T08:01:38;4.20;61.10
76211;DHT22;65003;49.518;11.280;2023-02-28T08:04:04;4.60;59.30
76211;DHT22;65003;49.518;11.280;2023-02-28T08:06:31;5.10;58.80
76211;DHT22;65003;49.518;11.280;2023-02-28T08:08:57;5.60;56.50
76211;DHT22;65003;49.518;11.280;2023-02-28T08:11:24;5.90;55.00
76211;DHT22;65003;49.518;11.280;2023-02-28T08:13:50;6.50;53.80
76211;DHT22;65003;49.518;11.280;2023-02-28T08:16:17;7.60;51.20
76211;DHT22;65003;49.518;11.280;2023-02-28T08:18:45;8.30;48.80
76211;DHT22;65003;49.518;11.280;2023-02-28T08:21:11;8.60;47.30
76211;DHT22;65003;49.518;11.280;2023-02-28T08:23:38;8.80;46.40
76211;DHT22;65003;49.518;11.280;2023-02-28T08:26:04;9.00;45.80
76211;DHT22;65003;49.518;11.280;2023-02-28T08:28:31;9.20;44.60
76211;DHT22;65003;49.518;11.280;2023-02-28T08:30:58;9.50;44.10
76211;DHT22;65003;49.518;11.280;2023-02-28T08:33:25;9.90;42.90
76211;DHT22;65003;49.518;11.280;2023-02-28T08:35:53;9.60;43.00
76211;DHT22;65003;49.518;11.280;2023-02-28T08:38:20;9.50;43.30
76211;DHT22;65003;49.518;11.280;2023-02-28T08:40:46;10.00;42.30
76211;DHT22;65003;49.518;11.280;2023-02-28T08:43:13;10.10;41.20
76211;DHT22;65003;49.518;11.280;2023-02-28T08:45:41;9.70;40.90
76211;DHT22;65003;49.518;11.280;2023-02-28T08:48:07;8.40;42.70
76211;DHT22;65003;49.518;11.280;2023-02-28T08:50:34;7.60;44.60
76211;DHT22;65003;49.518;11.280;2023-02-28T08:53:00;6.70;46.20
76211;DHT22;65003;49.518;11.280;2023-02-28T08:55:27;5.70;48.60
76211;DHT22;65003;49.518;11.280;2023-02-28T08:57:53;4.90;50.00
76211;DHT22;65003;49.518;11.280;2023-02-28T09:00:21;4.40;51.80
76211;DHT22;65003;49.518;11.280;2023-02-28T09:02:48;4.10;53.00
76211;DHT22;65003;49.518;11.280;2023-02-28T09:05:14;3.80;53.70
76211;DHT22;65003;49.518;11.280;2023-02-28T09:07:41;3.80;54.70
76211;DHT22;65003;49.518;11.280;2023-02-28T09:10:11;3.80;54.60
76211;DHT22;65003;49.518;11.280;2023-02-28T09:12:38;4.10;53.70
76211;DHT22;65003;49.518;11.280;2023-02-28T09:15:05;4.90;53.20
76211;DHT22;65003;49.518;11.280;2023-02-28T09:17:32;6.20;50.50
76211;DHT22;65003;49.518;11.280;2023-02-28T09:19:59;7.60;47.70
76211;DHT22;65003;49.518;11.280;2023-02-28T09:22:25;8.90;44.20
76211;DHT22;65003;49.518;11.280;2023-02-28T09:24:52;9.90;41.20
76211;DHT22;65003;49.518;11.280;2023-02-28T09:27:18;10.70;40.00
76211;DHT22;65003;49.518;11.280;2023-02-28T09:29:45;11.20;37.90
76211;DHT22;65003;49.518;11.280;2023-02-28T09:32:12;10.60;37.70
76211;DHT22;65003;49.518;11.280;2023-02-28T09:34:38;10.50;38.20
76211;DHT22;65003;49.518;11.280;2023-02-28T09:37:05;9.90;38.50
76211;DHT22;65003;49.518;11.280;2023-02-28T09:39:31;9.00;40.10
76211;DHT22;65003;49.518;11.280;2023-02-28T09:41:58;8.60;41.20
76211;DHT22;65003;49.518;11.280;2023-02-28T09:44:33;8.60;41.20
76211;DHT22;65003;49.518;11.280;2023-02-28T09:47:04;8.90;40.50
76211;DHT22;65003;49.518;11.280;2023-02-28T09:49:34;9.80;39.20
76211;DHT22;65003;49.518;11.280;2023-02-28T09:52:03;10.20;37.90
76211;DHT22;65003;49.518;11.280;2023-02-28T09:54:30;10.20;37.90
76211;DHT22;65003;49.518;11.280;2023-02-28T09:57:01;10.90;37.10
76211;DHT22;65003;49.518;11.280;2023-02-28T10:02:23;11.90;35.00
76211;DHT22;65003;49.518;11.280;2023-02-28T10:04:57;11.80;34.30
76211;DHT22;65003;49.518;11.280;2023-02-28T10:07:37;12.20;34.60
76211;DHT22;65003;49.518;11.280;2023-02-28T10:10:03;12.20;33.30
76211;DHT22;65003;49.518;11.280;2023-02-28T10:12:29;12.10;33.20
76211;DHT22;65003;49.518;11.280;2023-02-28T10:14:55;11.70;34.70
76211;DHT22;65003;49.518;11.280;2023-02-28T10:17:23;11.70;33.90
76211;DHT22;65003;49.518;11.280;2023-02-28T10:19:55;11.90;34.20
76211;DHT22;65003;49.518;11.280;2023-02-28T10:22:34;12.60;33.80
76211;DHT22;65003;49.518;11.280;2023-02-28T10:24:59;13.00;32.30
76211;DHT22;65003;49.518;11.280;2023-02-28T10:27:28;12.20;32.40
76211;DHT22;65003;49.518;11.280;2023-02-28T10:29:53;11.60;33.40
76211;DHT22;65003;49.518;11.280;2023-02-28T10:32:20;11.60;33.80
76211;DHT22;65003;49.518;11.280;2023-02-28T10:34:50;11.70;34.50
76211;DHT22;65003;49.518;11.280;2023-02-28T10:37:12;12.30;33.30
76211;DHT22;65003;49.518;11.280;2023-02-28T10:39:41;12.40;32.60
76211;DHT22;65003;49.518;11.280;2023-02-28T10:42:38;11.60;33.30
76211;DHT22;65003;49.518;11.280;2023-02-28T10:44:48;11.60;33.90
76211;DHT22;65003;49.518;11.280;2023-02-28T10:47:15;11.40;33.90
76211;DHT22;65003;49.518;11.280;2023-02-28T10:49:46;11.80;33.80
76211;DHT22;65003;49.518;11.280;2023-02-28T10:52:08;12.30;32.70
76211;DHT22;65003;49.518;11.280;2023-02-28T10:54:35;13.00;32.40
76211;DHT22;65003;49.518;11.280;2023-02-28T10:59:39;13.30;30.80
76211;DHT22;65003;49.518;11.280;2023-02-28T11:04:53;13.20;31.80
76211;DHT22;65003;49.518;11.280;2023-02-28T11:07:20;13.30;31.10
76211;DHT22;65003;49.518;11.280;2023-02-28T11:09:48;12.90;31.60
76211;DHT22;65003;49.518;11.280;2023-02-28T11:12:20;12.90;31.40
76211;DHT22;65003;49.518;11.280;2023-02-28T11:14:48;12.30;31.90
76211;DHT22;65003;49.518;11.280;2023-02-28T11:17:18;11.90;32.60
76211;DHT22;65003;49.518;11.280;2023-02-28T11:19:45;11.30;33.90
76211;DHT22;65003;49.518;11.280;2023-02-28T11:22:08;11.50;34.50
76211;DHT22;65003;49.518;11.280;2023-02-28T11:24:37;11.40;34.20
76211;DHT22;65003;49.518;11.280;2023-02-28T11:27:02;10.90;35.00
76211;DHT22;65003;49.518;11.280;2023-02-28T11:29:30;10.80;35.40
76211;DHT22;65003;49.518;11.280;2023-02-28T11:32:19;10.40;35.80
76211;DHT22;65003;49.518;11.280;2023-02-28T11:34:43;10.10;36.50
76211;DHT22;65003;49.518;11.280;2023-02-28T11:37:12;10.00;36.40
76211;DHT22;65003;49.518;11.280;2023-02-28T11:39:37;9.90;36.80
76211;DHT22;65003;49.518;11.280;2023-02-28T11:42:16;9.50;36.90
76211;DHT22;65003;49.518;11.280;2023-02-28T11:47:37;8.80;38.40
76211;DHT22;65003;49.518;11.280;2023-02-28T11:52:48;8.70;39.40
76211;DHT22;65003;49.518;11.280;2023-02-28T11:55:24;8.80;39.20
76211;DHT22;65003;49.518;11.280;2023-02-28T11:58:02;8.90;39.20
76211;DHT22;65003;49.518;11.280;2023-02-28T12:03:26;8.80;39.40
76211;DHT22;65003;49.518;11.280;2023-02-28T12:06:09;8.90;38.90
76211;DHT22;65003;49.518;11.280;2023-02-28T12:13:43;8.70;39.80
76211;DHT22;65003;49.518;11.280;2023-02-28T12:16:18;8.40;39.80
76211;DHT22;65003;49.518;11.280;2023-02-28T12:18:50;8.20;40.50
76211;DHT22;65003;49.518;11.280;2023-02-28T12:24:14;8.70;40.30
76211;DHT22;65003;49.518;11.280;2023-02-28T12:26:38;9.00;40.30
76211;DHT22;65003;49.518;11.280;2023-02-28T12:29:13;9.30;39.40
76211;DHT22;65003;49.518;11.280;2023-02-28T12:31:38;9.30;38.40
76211;DHT22;65003;49.518;11.280;2023-02-28T12:34:05;9.20;39.20
76211;DHT22;65003;49.518;11.280;2023-02-28T12:36:30;9.30;39.00
76211;DHT22;65003;49.518;11.280;2023-02-28T12:39:08;9.20;39.90
76211;DHT22;65003;49.518;11.280;2023-02-28T12:41:39;9.30;39.70
76211;DHT22;65003;49.518;11.280;2023-02-28T12:44:09;9.20;39.60
76211;DHT22;65003;49.518;11.280;2023-02-28T12:46:36;9.30;38.90
76211;DHT22;65003;49.518;11.280;2023-02-28T12:49:06;9.10;39.20
76211;DHT22;65003;49.518;11.280;2023-02-28T12:51:31;9.00;39.90
76211;DHT22;65003;49.518;11.280;2023-02-28T12:54:07;8.70;40.20
76211;DHT22;65003;49.518;11.280;2023-02-28T12:56:35;8.60;40.50
76211;DHT22;65003;49.518;11.280;2023-02-28T12:59:01;8.40;40.90
76211;DHT22;65003;49.518;11.280;2023-02-28T13:01:34;8.40;41.60
76211;DHT22;65003;49.518;11.280;2023-02-28T13:04:34;8.30;41.30
76211;DHT22;65003;49.518;11.280;2023-02-28T13:07:08;8.30;41.60
76211;DHT22;65003;49.518;11.280;2023-02-28T13:09:30;8.20;41.40
76211;DHT22;65003;49.518;11.280;2023-02-28T13:11:57;8.00;41.90
76211;DHT22;65003;49.518;11.280;2023-02-28T13:14:29;8.00;42.30
76211;DHT22;65003;49.518;11.280;2023-02-28T13:17:17;7.90;42.30
76211;DHT22;65003;49.518;11.280;2023-02-28T13:19:45;8.00;43.20
76211;DHT22;65003;49.518;11.280;2023-02-28T13:22:18;8.00;42.00
76211;DHT22;65003;49.518;11.280;2023-02-28T13:24:48;8.20;42.70
76211;DHT22;65003;49.518;11.280;2023-02-28T13:27:32;8.40;42.50
76211;DHT22;65003;49.518;11.280;2023-02-28T13:29:58;8.40;41.80
76211;DHT22;65003;49.518;11.280;2023-02-28T13:32:32;8.40;41.50
76211;DHT22;65003;49.518;11.280;2023-02-28T13:35:14;8.10;41.90
76211;DHT22;65003;49.518;11.280;2023-02-28T13:37:43;7.80;42.80
76211;DHT22;65003;49.518;11.280;2023-02-28T13:40:26;7.50;43.20
76211;DHT22;65003;49.518;11.280;2023-02-28T13:42:52;7.40;43.90
76211;DHT22;65003;49.518;11.280;2023-02-28T13:45:20;7.40;43.60
76211;DHT22;65003;49.518;11.280;2023-02-28T13:47:54;7.40;43.80
76211;DHT22;65003;49.518;11.280;2023-02-28T13:50:23;7.30;44.40
76211;DHT22;65003;49.518;11.280;2023-02-28T13:52:52;7.50;44.00
76211;DHT22;65003;49.518;11.280;2023-02-28T13:55:19;7.50;44.00
76211;DHT22;65003;49.518;11.280;2023-02-28T13:58:09;7.60;44.40
76211;DHT22;65003;49.518;11.280;2023-02-28T14:00:57;7.70;43.70
76211;DHT22;65003;49.518;11.280;2023-02-28T14:03:28;7.60;43.70
76211;DHT22;65003;49.518;11.280;2023-02-28T14:08:29;7.40;44.30
76211;DHT22;65003;49.518;11.280;2023-02-28T14:11:07;7.40;44.30
76211;DHT22;65003;49.518;11.280;2023-02-28T14:13:39;7.40;44.20
76211;DHT22;65003;49.518;11.280;2023-02-28T14:16:05;7.50;44.00
76211;DHT22;65003;49.518;11.280;2023-02-28T14:18:33;7.40;43.80
76211;DHT22;65003;49.518;11.280;2023-02-28T14:23:50;7.30;44.10
76211;DHT22;65003;49.518;11.280;2023-02-28T14:26:30;7.30;44.70
76211;DHT22;65003;49.518;11.280;2023-02-28T14:29:14;7.00;44.20
76211;DHT22;65003;49.518;11.280;2023-02-28T14:31:35;6.80;45.00
76211;DHT22;65003;49.518;11.280;2023-02-28T14:34:26;6.80;45.20
76211;DHT22;65003;49.518;11.280;2023-02-28T14:36:48;6.70;46.20
76211;DHT22;65003;49.518;11.280;2023-02-28T14:39:16;6.70;46.20
76211;DHT22;65003;49.518;11.280;2023-02-28T14:41:42;6.70;46.20
76211;DHT22;65003;49.518;11.280;2023-02-28T14:44:17;6.60;46.10
76211;DHT22;65003;49.518;11.280;2023-02-28T14:46:42;6.60;46.40
76211;DHT22;65003;49.518;11.280;2023-02-28T14:49:15;6.60;46.10
76211;DHT22;65003;49.518;11.280;2023-02-28T14:51:39;6.50;46.60
76211;DHT22;65003;49.518;11.280;2023-02-28T14:54:06;6.50;46.90
76211;DHT22;65003;49.518;11.280;2023-02-28T14:56:35;6.30;47.20
76211;DHT22;65003;49.518;11.280;2023-02-28T14:59:00;6.30;47.30
76211;DHT22;65003;49.518;11.280;2023-02-28T15:01:27;6.30;47.20
76211;DHT22;65003;49.518;11.280;2023-02-28T15:03:58;6.40;47.20
76211;DHT22;65003;49.518;11.280;2023-02-28T15:06:24;6.40;47.10
76211;DHT22;65003;49.518;11.280;2023-02-28T15:11:29;6.30;47.60
76211;DHT22;65003;49.518;11.280;2023-02-28T15:13:55;6.30;47.70
76211;DHT22;65003;49.518;11.280;2023-02-28T15:16:23;6.20;47.90
76211;DHT22;65003;49.518;11.280;2023-02-28T15:18:51;6.10;48.00
76211;DHT22;65003;49.518;11.280;2023-02-28T15:21:22;6.00;48.10
76211;DHT22;65003;49.518;11.280;2023-02-28T15:23:54;5.90;48.60
76211;DHT22;65003;49.518;11.280;2023-02-28T15:26:20;5.90;49.10
76211;DHT22;65003;49.518;11.280;2023-02-28T15:28:46;5.70;49.30
76211;DHT22;65003;49.518;11.280;2023-02-28T15:31:22;5.70;49.20
76211;DHT22;65003;49.518;11.280;2023-02-28T15:33:56;5.70;49.40
76211;DHT22;65003;49.518;11.280;2023-02-28T15:36:23;5.80;49.60
76211;DHT22;65003;49.518;11.280;2023-02-28T15:38:51;5.70;49.50
76211;DHT22;65003;49.518;11.280;2023-02-28T15:41:23;5.50;49.80
76211;DHT22;65003;49.518;11.280;2023-02-28T15:43:48;5.60;50.00
76211;DHT22;65003;49.518;11.280;2023-02-28T15:46:14;5.50;50.00
76211;DHT22;65003;49.518;11.280;2023-02-28T15:48:44;5.40;50.70
76211;DHT22;65003;49.518;11.280;2023-02-28T15:51:20;5.30;50.50
76211;DHT22;65003;49.518;11.280;2023-02-28T15:53:51;5.40;50.50
76211;DHT22;65003;49.518;11.280;2023-02-28T15:56:23;5.30;50.70
76211;DHT22;65003;49.518;11.280;2023-02-28T15:58:47;5.30;50.70
76211;DHT22;65003;49.518;11.280;2023-02-28T16:01:18;5.20;50.90
76211;DHT22;65003;49.518;11.280;2023-02-28T16:03:47;5.00;51.40
76211;DHT22;65003;49.518;11.280;2023-02-28T16:06:32;5.00;51.90
76211;DHT22;65003;49.518;11.280;2023-02-28T16:08:56;4.90;52.10